.
WxDataArchive / Data Records for 2009-08-09
2009-08-08 August 2009 2009-08-10

Data Records for Sunday, 09 August 2009

Time	Temp	Chill	HIndex	Humid	Dewpt	 Wind 	HiWind	WindDir	Rain 	Barom 
-----	----	-----	------	-----	-----	------	------	-------	-----	----- 
00:00	78.8	78.8	81.6	77	71.0	1	2	270	0.00	30.001 
00:05	78.8	78.8	81.6	77	71.0	1	2	270	0.00	30.001 
00:10	78.6	78.6	81.2	76	70.4	1	3	270	0.00	30.001 
00:15	78.6	78.6	81.2	77	70.8	1	4	270	0.00	29.999 
00:20	78.5	78.5	81.1	77	70.7	1	4	270	0.00	29.999 
00:25	78.3	78.3	80.7	77	70.5	1	4	315	0.00	29.999 
00:30	78.3	78.3	80.7	77	70.5	0	2	315	0.00	29.997 
00:35	78.1	78.1	80.4	77	70.3	0	2	315	0.00	29.997 
00:40	77.9	77.9	80.1	78	70.5	0	2	315	0.00	29.997 
00:45	77.7	77.7	79.7	78	70.3	0	3	45	0.00	29.995 
00:50	77.6	77.6	79.6	79	70.6	0	2	45	0.00	29.995 
00:55	77.4	77.4	79.3	79	70.4	1	2	0	0.00	29.995 
01:00	77.4	77.4	79.2	80	70.7	1	4	338	0.00	29.996 
01:05	77.2	77.2	78.9	80	70.5	1	4	248	0.00	29.996 
01:10	77.0	77.0	78.6	80	70.3	0	1	270	0.00	29.996 
01:15	76.8	76.8	78.2	81	70.5	0	2	270	0.00	29.997 
01:20	76.7	76.7	78.0	81	70.4	0	3	248	0.00	29.997 
01:25	76.7	76.7	78.0	81	70.4	0	2	248	0.00	29.997 
01:30	76.5	76.5	77.7	81	70.2	1	3	248	0.00	29.990 
01:35	76.5	76.5	77.7	81	70.2	0	2	248	0.00	29.990 
01:40	76.5	76.5	77.7	81	70.2	1	4	248	0.00	29.990 
01:45	76.5	76.5	77.7	81	70.2	1	4	225	0.00	29.993 
01:50	76.5	76.5	77.7	81	70.2	1	4	248	0.00	29.993 
01:55	76.3	76.3	77.3	82	70.4	0	2	248	0.00	29.993 
02:00	76.1	76.1	77.0	82	70.2	0	2	248	0.00	30.001 
02:05	76.1	76.1	77.0	82	70.2	0	2	248	0.00	30.001 
02:10	76.0	76.0	76.8	82	70.1	0	4	248	0.00	30.001 
02:15	76.0	76.0	76.8	82	70.1	0	1	248	0.00	30.003 
02:20	75.8	75.8	76.4	83	70.3	0	3	248	0.00	30.003 
02:25	75.8	75.8	76.4	83	70.3	0	4	248	0.00	30.003 
02:30	75.8	75.8	76.4	83	70.3	0	1	248	0.00	30.006 
02:35	75.6	75.6	76.1	83	70.1	0	2	248	0.00	30.006 
02:40	75.6	75.6	76.1	83	70.1	0	1	248	0.00	30.006 
02:45	75.4	75.4	75.7	84	70.2	0	2	248	0.00	30.007 
02:50	75.4	75.4	75.7	84	70.2	0	1	248	0.00	30.007 
02:55	75.4	75.4	75.7	84	70.2	0	1	248	0.00	30.007 
03:00	75.4	75.4	75.7	84	70.2	0	2	248	0.00	30.012 
03:05	75.4	75.4	75.7	84	70.2	0	1	248	0.00	30.012 
03:10	75.3	75.3	75.5	84	70.1	0	1	248	0.00	30.012 
03:15	75.1	75.1	75.2	84	69.9	0	1	248	0.00	30.010 
03:20	75.1	75.1	75.2	84	69.9	0	2	248	0.00	30.010 
03:25	74.9	74.9	74.9	85	70.1	0	0	---	0.00	30.010 
03:30	74.7	74.7	74.7	85	69.9	0	0	---	0.00	30.016 
03:35	74.7	74.7	74.7	85	69.9	0	1	248	0.00	30.016 
03:40	74.6	74.6	74.6	85	69.8	0	1	248	0.00	30.016 
03:45	74.4	74.4	74.4	86	69.9	0	1	248	0.00	30.015 
03:50	74.2	74.2	74.2	86	69.7	0	0	---	0.00	30.015 
03:55	74.0	74.0	74.0	87	69.9	0	1	248	0.00	30.015 
04:00	74.0	74.0	74.0	87	69.9	0	1	248	0.00	30.015 
04:05	73.9	73.9	73.9	87	69.8	0	1	248	0.00	30.015 
04:10	73.7	73.7	73.7	88	69.9	0	0	---	0.00	30.015 
04:15	73.7	73.7	73.7	88	69.9	0	0	---	0.00	30.012 
04:20	73.5	73.5	73.5	88	69.7	0	0	---	0.00	30.012 
04:25	73.3	73.3	73.3	88	69.5	0	0	---	0.00	30.012 
04:30	73.2	73.2	73.2	88	69.4	0	0	---	0.00	30.014 
04:35	73.0	73.0	73.0	88	69.2	0	0	---	0.00	30.014 
04:40	73.0	73.0	73.0	89	69.6	0	1	248	0.00	30.014 
04:45	72.8	72.8	72.8	89	69.4	0	0	---	0.00	30.014 
04:50	72.7	72.7	72.7	89	69.3	0	1	248	0.00	30.014 
04:55	72.7	72.7	72.7	90	69.6	0	0	---	0.00	30.014 
05:00	72.5	72.5	72.5	90	69.4	0	1	248	0.00	30.015 
05:05	72.5	72.5	72.5	90	69.4	0	2	248	0.00	30.015 
05:10	72.5	72.5	72.5	90	69.4	0	2	248	0.00	30.015 
05:15	72.3	72.3	72.3	91	69.5	0	2	248	0.00	30.015 
05:20	72.3	72.3	72.3	91	69.5	0	2	248	0.00	30.015 
05:25	72.3	72.3	72.3	91	69.5	0	1	248	0.00	30.015 
05:30	72.3	72.3	72.3	91	69.5	0	1	248	0.00	30.017 
05:35	72.3	72.3	72.3	91	69.5	0	1	248	0.00	30.017 
05:40	72.3	72.3	72.3	91	69.5	0	1	248	0.00	30.017 
05:45	72.5	72.5	72.5	91	69.7	0	1	248	0.00	30.018 
05:50	72.5	72.5	72.5	91	69.7	0	1	248	0.00	30.018 
05:55	72.5	72.5	72.5	91	69.7	0	1	248	0.00	30.018 
06:00	72.5	72.5	72.5	91	69.7	0	2	248	0.00	30.016 
06:05	72.7	72.7	72.7	91	69.9	0	1	248	0.00	30.016 
06:10	72.7	72.7	72.7	91	69.9	0	2	0	0.00	30.016 
06:15	72.7	72.7	72.7	91	69.9	0	3	248	0.00	30.019 
06:20	72.8	72.8	72.8	91	70.0	1	2	248	0.00	30.019 
06:25	73.0	73.0	73.0	91	70.2	1	3	248	0.00	30.019 
06:30	73.0	73.0	73.0	90	69.9	0	3	248	0.00	30.020 
06:35	73.0	73.0	73.0	90	69.9	1	5	248	0.00	30.020 
06:40	73.0	73.0	73.0	90	69.9	1	4	292	0.00	30.020 
06:45	73.0	73.0	73.0	90	69.9	1	2	248	0.00	30.021 
06:50	73.0	73.0	73.0	90	69.9	0	2	248	0.00	30.021 
06:55	73.0	73.0	73.0	90	69.9	1	4	248	0.00	30.021 
07:00	73.2	73.2	73.2	90	70.1	1	4	248	0.00	30.026 
07:05	73.2	73.2	73.2	90	70.1	1	3	270	0.00	30.026 
07:10	73.2	73.2	73.2	90	70.1	1	3	270	0.00	30.026 
07:15	73.2	73.2	73.2	90	70.1	1	3	248	0.00	30.031 
07:20	73.3	73.3	73.3	90	70.2	1	2	248	0.00	30.031 
07:25	73.3	73.3	73.3	90	70.2	1	3	248	0.00	30.031 
07:30	73.5	73.5	73.5	90	70.4	1	6	270	0.00	30.031 
07:35	73.7	73.7	73.7	90	70.6	1	4	292	0.00	30.031 
07:40	73.9	73.9	73.9	90	70.8	1	4	270	0.00	30.031 
07:45	74.0	74.0	74.0	89	70.5	1	2	248	0.00	30.034 
07:50	74.4	74.4	74.4	89	70.9	1	5	248	0.00	30.034 
07:55	74.6	74.6	74.6	88	70.8	1	4	248	0.00	30.034 
08:00	74.7	74.7	74.7	88	70.9	1	4	248	0.00	30.032 
08:05	75.1	75.1	74.7	87	71.0	1	4	270	0.00	30.032 
08:10	75.4	75.4	75.3	87	71.2	1	4	270	0.00	30.032 
08:15	75.8	75.8	76.1	86	71.3	1	4	248	0.00	30.035 
08:20	76.0	76.0	76.6	85	71.2	1	3	248	0.00	30.035 
08:25	76.3	76.3	77.1	85	71.4	2	5	248	0.00	30.035 
08:30	76.7	76.7	77.9	84	71.5	2	5	270	0.00	30.033 
08:35	77.0	77.0	78.4	84	71.8	1	4	270	0.00	30.033 
08:40	77.4	77.4	79.2	83	71.8	1	5	292	0.00	30.033 
08:45	77.7	77.7	79.8	82	71.8	2	5	270	0.00	30.033 
08:50	78.1	78.1	80.5	82	72.1	2	4	248	0.00	30.033 
08:55	78.5	78.5	81.3	81	72.2	2	5	270	0.00	30.033 
09:00	78.8	78.8	81.8	80	72.1	2	9	270	0.00	30.031 
09:05	79.0	79.0	82.2	80	72.3	2	5	270	0.00	30.031 
09:10	79.4	79.4	82.9	79	72.3	2	8	248	0.00	30.031 
09:15	79.6	79.6	83.2	78	72.1	2	4	270	0.00	30.033 
09:20	79.9	79.9	83.8	78	72.4	2	4	270	0.00	30.033 
09:25	80.3	80.3	84.4	77	72.4	2	7	270	0.00	30.033 
09:30	80.3	80.3	84.4	77	72.4	2	5	270	0.00	30.032 
09:35	80.5	80.5	84.8	77	72.6	2	5	270	0.00	30.032 
09:40	80.7	80.7	85.1	76	72.4	3	6	270	0.00	30.032 
09:45	81.1	81.1	85.7	75	72.4	2	7	270	0.00	30.029 
09:50	81.2	81.2	85.9	75	72.5	2	5	270	0.00	30.029 
09:55	81.4	81.4	86.3	75	72.7	3	6	270	0.00	30.029 
10:00	81.8	81.8	86.9	74	72.7	2	6	270	0.00	30.024 
10:05	82.0	82.0	87.3	74	72.9	3	10	270	0.00	30.024 
10:10	82.2	82.2	87.5	73	72.7	3	7	270	0.00	30.024 
10:15	82.4	82.4	87.9	73	72.9	2	7	270	0.00	30.014 
10:20	82.8	82.8	88.8	73	73.2	2	5	270	0.00	30.014 
10:25	83.0	83.0	88.7	71	72.6	3	7	270	0.00	30.014 
10:30	83.4	83.4	89.5	71	73.0	3	6	270	0.00	30.013 
10:35	83.4	83.4	89.5	71	73.0	3	8	270	0.00	30.013 
10:40	83.4	83.4	89.8	72	73.4	3	7	270	0.00	30.013 
10:45	83.8	83.8	90.0	70	72.9	3	5	270	0.00	30.012 
10:50	84.1	84.1	90.7	70	73.2	3	6	270	0.00	30.012 
10:55	84.5	84.5	91.6	70	73.6	2	9	248	0.00	30.012 
11:00	84.7	84.7	91.7	69	73.4	2	6	270	0.00	30.012 
11:05	84.9	84.9	91.7	68	73.1	2	4	248	0.00	30.012 
11:10	85.5	85.5	92.7	67	73.3	2	6	248	0.00	30.012 
11:15	85.5	85.5	92.3	66	72.8	3	6	270	0.00	30.018 
11:20	85.7	85.7	92.3	65	72.5	2	5	270	0.00	30.018 
11:25	85.7	85.7	92.7	66	73.0	2	6	270	0.00	30.018 
11:30	86.3	86.3	93.6	65	73.1	2	6	292	0.00	30.018 
11:35	86.7	86.7	94.5	65	73.5	2	5	248	0.00	30.018 
11:40	87.2	87.2	95.2	64	73.5	2	4	248	0.00	30.018 
11:45	87.4	87.4	95.2	63	73.2	2	5	270	0.00	30.022 
11:50	87.4	87.4	95.2	63	73.2	3	6	315	0.00	30.022 
11:55	87.8	87.8	95.6	62	73.1	1	4	315	0.00	30.022 
12:00	88.2	88.2	96.1	61	73.0	1	4	270	0.00	30.024 
12:05	88.2	88.2	96.1	61	73.0	2	4	270	0.00	30.024 
12:10	88.2	88.2	96.1	61	73.0	2	5	270	0.00	30.024 
12:15	88.4	88.4	97.0	62	73.7	2	6	248	0.00	30.026 
12:20	88.6	88.6	97.0	61	73.4	2	5	270	0.00	30.026 
12:25	88.6	88.6	97.0	61	73.4	2	5	270	0.00	30.026 
12:30	89.0	89.0	96.8	59	72.8	2	5	270	0.00	30.019 
12:35	89.3	89.3	97.5	59	73.1	2	5	270	0.00	30.019 
12:40	89.5	89.5	98.0	59	73.2	2	5	270	0.00	30.019 
12:45	89.7	89.7	97.9	58	72.9	2	6	292	0.00	30.011 
12:50	89.7	89.7	97.9	58	72.9	2	5	270	0.00	30.011 
12:55	89.9	89.9	98.3	58	73.1	2	4	270	0.00	30.011 
13:00	90.1	90.1	98.3	57	72.8	2	5	270	0.00	30.008 
13:05	90.3	90.3	98.7	57	73.0	2	6	248	0.00	30.008 
13:10	90.5	90.5	98.6	56	72.6	2	5	270	0.00	30.008 
13:15	90.3	90.3	97.6	55	71.9	3	9	270	0.00	30.006 
13:20	90.3	90.3	98.7	57	73.0	3	8	270	0.00	30.006 
13:25	90.3	90.3	97.6	55	71.9	2	6	270	0.00	30.006 
13:30	90.5	90.5	98.1	55	72.1	3	12	270	0.00	29.998 
13:35	90.3	90.3	98.2	56	72.4	3	7	270	0.00	29.998 
13:40	90.7	90.7	99.1	56	72.8	2	4	270	0.00	29.998 
13:45	91.2	91.2	99.6	55	72.7	2	6	270	0.00	29.995 
13:50	91.2	91.2	99.0	54	72.2	2	6	270	0.00	29.995 
13:55	91.0	91.0	98.6	54	72.0	3	7	270	0.00	29.995 
14:00	91.0	91.0	98.6	54	72.0	3	9	270	0.00	29.992 
14:05	91.4	91.4	98.9	53	71.8	3	8	270	0.00	29.992 
14:10	91.4	91.4	99.5	54	72.4	3	6	270	0.00	29.992 
14:15	91.2	91.2	98.5	53	71.6	2	4	270	0.00	29.992 
14:20	91.4	91.4	100.1	55	72.9	3	6	270	0.00	29.992 
14:25	91.4	91.4	99.5	54	72.4	3	7	248	0.00	29.992 
14:30	91.6	91.6	100.5	55	73.1	2	6	248	0.00	29.986 
14:35	92.1	92.1	101.1	54	73.0	2	6	270	0.00	29.986 
14:40	92.1	92.1	99.9	52	71.9	3	6	270	0.00	29.986 
14:45	92.1	92.1	99.9	52	71.9	3	7	292	0.00	29.985 
14:50	92.3	92.3	99.7	51	71.5	3	5	270	0.00	29.985 
14:55	92.1	92.1	99.9	52	71.9	3	11	270	0.00	29.985 
15:00	92.3	92.3	99.7	51	71.5	3	9	270	0.00	29.986 
15:05	92.5	92.5	99.6	50	71.1	3	7	270	0.00	29.986 
15:10	92.3	92.3	99.2	50	70.9	3	8	270	0.00	29.986 
15:15	92.5	92.5	99.6	50	71.1	2	6	270	0.00	29.984 
15:20	92.5	92.5	100.2	51	71.7	2	5	270	0.00	29.984 
15:25	92.5	92.5	99.6	50	71.1	4	7	270	0.00	29.984 
15:30	92.5	92.5	99.6	50	71.1	3	7	270	0.00	29.983 
15:35	92.7	92.7	100.0	50	71.3	3	6	270	0.00	29.983 
15:40	92.9	92.9	99.9	49	70.9	3	11	270	0.00	29.983 
15:45	92.9	92.9	98.2	46	69.0	3	7	270	0.00	29.988 
15:50	92.7	92.7	98.3	47	69.5	3	7	270	0.00	29.988 
15:55	92.5	92.5	98.5	48	69.9	3	6	248	0.00	29.988 
16:00	92.5	92.5	99.0	49	70.5	2	6	270	0.00	29.982 
16:05	92.7	92.7	98.3	47	69.5	3	6	270	0.00	29.982 
16:10	92.7	92.7	98.3	47	69.5	3	7	270	0.00	29.982 
16:15	92.7	92.7	97.8	46	68.8	4	10	270	0.00	29.980 
16:20	92.7	92.7	97.3	45	68.2	3	8	270	0.00	29.980 
16:25	92.5	92.5	97.4	46	68.7	3	7	270	0.00	29.980 
16:30	92.5	92.5	97.9	47	69.3	3	11	270	0.00	29.976 
16:35	92.7	92.7	97.8	46	68.8	3	6	270	0.00	29.976 
16:40	92.5	92.5	97.4	46	68.7	4	11	270	0.00	29.976 
16:45	92.5	92.5	97.9	47	69.3	3	6	270	0.00	29.972 
16:50	92.7	92.7	98.3	47	69.5	4	6	270	0.00	29.972 
16:55	92.3	92.3	98.1	48	69.7	4	9	270	0.00	29.972 
17:00	92.1	92.1	97.7	48	69.5	3	6	270	0.00	29.969 
17:05	92.1	92.1	98.2	49	70.1	2	6	270	0.00	29.969 
17:10	92.1	92.1	97.7	48	69.5	3	6	270	0.00	29.969 
17:15	92.1	92.1	97.7	48	69.5	2	5	270	0.00	29.978 
17:20	91.8	91.8	97.6	49	69.9	2	7	270	0.00	29.978 
17:25	91.6	91.6	97.7	50	70.3	2	5	248	0.00	29.978 
17:30	91.4	91.4	96.8	49	69.5	2	5	270	0.00	29.978 
17:35	91.2	91.2	96.9	50	69.9	2	4	270	0.00	29.978 
17:40	91.2	91.2	96.9	50	69.9	2	5	292	0.00	29.978 
17:45	91.2	91.2	96.4	49	69.3	3	7	270	0.00	29.980 
17:50	91.2	91.2	96.4	49	69.3	2	4	248	0.00	29.980 
17:55	91.4	91.4	96.8	49	69.5	1	3	270	0.00	29.980 
18:00	91.4	91.4	96.8	49	69.5	2	5	270	0.00	29.979 
18:05	91.4	91.4	96.8	49	69.5	1	5	270	0.00	29.979 
18:10	91.2	91.2	96.9	50	69.9	1	4	292	0.00	29.979 
18:15	91.0	91.0	95.6	48	68.5	3	7	270	0.00	29.980 
18:20	90.5	90.5	95.1	49	68.7	2	6	270	0.00	29.980 
18:25	90.5	90.5	95.1	49	68.7	3	5	248	0.00	29.980 
18:30	90.3	90.3	94.7	49	68.5	3	10	248	0.00	29.976 
18:35	89.7	89.7	94.5	51	69.1	2	5	248	0.00	29.976 
18:40	89.5	89.5	94.1	51	68.9	1	3	248	0.00	29.976 
18:45	89.5	89.5	94.1	51	68.9	3	7	270	0.00	29.967 
18:50	89.5	89.5	93.7	50	68.4	2	7	270	0.00	29.967 
18:55	89.3	89.3	93.7	51	68.8	2	5	270	0.00	29.967 
19:00	89.0	89.0	93.2	51	68.5	2	6	270	0.00	29.964 
19:05	88.8	88.8	93.2	52	68.9	2	5	270	0.00	29.964 
19:10	88.8	88.8	92.8	51	68.3	3	6	270	0.00	29.964 
19:15	88.8	88.8	92.8	51	68.3	3	7	270	0.00	29.958 
19:20	88.6	88.6	92.9	52	68.7	2	6	248	0.00	29.958 
19:25	88.4	88.4	92.5	52	68.5	2	6	270	0.00	29.958 
19:30	88.4	88.4	92.9	53	69.1	2	5	270	0.00	29.962 
19:35	88.4	88.4	92.9	53	69.1	2	5	248	0.00	29.962 
19:40	88.2	88.2	92.5	53	68.9	2	5	270	0.00	29.962 
19:45	88.0	88.0	92.6	54	69.2	1	4	270	0.00	29.966 
19:50	87.8	87.8	92.6	55	69.6	2	5	270	0.00	29.966 
19:55	87.6	87.6	91.8	54	68.9	2	10	270	0.00	29.966 
20:00	87.4	87.4	91.9	55	69.2	1	4	270	0.00	29.966 
20:05	87.2	87.2	91.9	56	69.6	1	4	270	0.00	29.966 
20:10	87.0	87.0	91.5	56	69.4	1	4	270	0.00	29.966 
20:15	86.7	86.7	91.0	56	69.1	1	3	270	0.00	29.975 
20:20	86.5	86.5	91.0	57	69.4	1	3	292	0.00	29.975 
20:25	86.5	86.5	91.0	57	69.4	1	3	270	0.00	29.975 
20:30	86.3	86.3	90.9	58	69.7	1	5	270	0.00	29.987 
20:35	86.1	86.1	90.6	58	69.6	1	3	270	0.00	29.987 
20:40	85.9	85.9	90.2	58	69.4	1	4	270	0.00	29.987 
20:45	85.9	85.9	90.2	58	69.4	1	3	270	0.00	29.992 
20:50	85.7	85.7	90.2	59	69.7	0	2	270	0.00	29.992 
20:55	85.3	85.3	89.8	60	69.8	0	2	270	0.00	29.992 
21:00	85.1	85.1	89.4	60	69.6	0	1	270	0.00	29.986 
21:05	84.9	84.9	89.4	61	69.9	0	1	270	0.00	29.986 
21:10	84.7	84.7	89.0	61	69.7	0	1	270	0.00	29.986 
21:15	84.5	84.5	89.0	62	70.0	0	2	270	0.00	29.989 
21:20	84.3	84.3	88.6	62	69.8	0	1	270	0.00	29.989 
21:25	84.3	84.3	88.6	62	69.8	0	2	270	0.00	29.989 
21:30	84.1	84.1	88.2	62	69.6	0	2	270	0.00	29.986 
21:35	84.1	84.1	88.5	63	70.1	0	3	270	0.00	29.986 
21:40	83.8	83.8	88.3	64	70.3	0	2	248	0.00	29.986 
21:45	83.6	83.6	88.2	65	70.6	0	1	248	0.00	29.980 
21:50	83.4	83.4	87.8	65	70.4	1	3	248	0.00	29.980 
21:55	83.4	83.4	87.8	65	70.4	0	3	270	0.00	29.980 
22:00	83.2	83.2	87.7	66	70.6	0	2	270	0.00	29.985 
22:05	83.0	83.0	87.3	66	70.4	0	1	270	0.00	29.985 
22:10	82.8	82.8	87.0	66	70.3	0	1	270	0.00	29.985 
22:15	82.6	82.6	86.9	67	70.5	0	1	270	0.00	29.988 
22:20	82.4	82.4	86.7	68	70.8	0	1	270	0.00	29.988 
22:25	82.4	82.4	86.7	68	70.8	0	1	270	0.00	29.988 
22:30	82.2	82.2	86.6	69	71.0	0	2	270	0.00	29.982 
22:35	82.2	82.2	86.6	69	71.0	0	2	270	0.00	29.982 
22:40	82.0	82.0	86.2	69	70.8	0	1	270	0.00	29.982 
22:45	81.8	81.8	85.9	69	70.6	0	2	270	0.00	29.983 
22:50	81.6	81.6	85.7	70	70.8	0	2	270	0.00	29.983 
22:55	81.6	81.6	85.7	70	70.8	1	2	270	0.00	29.983 
23:00	81.4	81.4	85.3	70	70.7	0	4	90	0.00	29.983 
23:05	81.4	81.4	85.3	70	70.7	1	4	225	0.00	29.983 
23:10	81.2	81.2	85.2	71	70.9	1	2	248	0.00	29.983 
23:15	81.2	81.2	85.2	71	70.9	0	2	248	0.00	29.978 
23:20	81.1	81.1	85.0	71	70.8	1	3	248	0.00	29.978 
23:25	81.1	81.1	85.0	71	70.8	1	3	248	0.00	29.978 
23:30	80.9	80.9	84.8	72	71.0	1	3	270	0.00	29.977 
23:35	80.9	80.9	84.8	72	71.0	0	2	248	0.00	29.977 
23:40	80.7	80.7	84.4	72	70.8	1	4	225	0.00	29.977 
23:45	80.7	80.7	84.4	72	70.8	1	3	248	0.00	29.971 
23:50	80.7	80.7	84.4	72	70.8	1	3	248	0.00	29.971 
23:55	80.7	80.7	84.4	72	70.8	1	4	225	0.00	29.971 

CoCoRaHS
IN-AL-39
A2 Web Hosting
Creative Commons License
GoDaddy
search engine by freefind advanced

loaded 2018-11-16 11:51:30 • last modified 2010-11-18 10:43:29
Privacy PolicyDisclaimer
• wx.awcolley.com is powered by PmWiki v.2002016 •
• all content (unless otherwise noted) © 2018 A W Colley